Pagina principale
METAR-TAF:

METAR-TAF

Aeroporti :

Base aerea di Sigonella

Sigonella, Italia

latitudine: 37-24N, longitudine: 014-55E, altezza: 22 m

Osservazione

Il bollettino è stato emesso 57 minuti fa, alle 04:55 UTC
Vento 4 kt da sud-ovest
Temperature 7°C
Umidità 100%
Pressione 1026 hPa
Visibilità: 8000 m
Nuvoloso ad un'altezza di 3000 ft

METAR: LICZ 210455Z 23004KT 8000 BKN030 07/07 Q1026 RMK BKN VIS MIN 8000 WIND THR28 22004KT WIND THR10 22003KT A3031 BLU

Ora: 06:52 (05:52 UTC)

Previsione

Il bollettino è stato emesso 52 minuti fa, alle 05:00 UTC
Previsione valida dal 21 alle 06 UTC al 21 alle 15 UTC
Vento 3 kt da direzioni variabili
Visibilità 10 km o più
Nubi sparse ad un'altezza di 3000 ft

TAF: LICZ 210500Z 2106/2115 VRB03KT 9999 SCT030

Osservazioni e previsioni meteorologiche di più di 4000 aeroporti (messaggi METAR e TAF).

Le stazioni disponibili sono rappresentate dai dischi gialli e rossi sulla carta.

Puntare il mouse per vedere il nome della stazione.

Clicca sopra per visualizzare le osservazioni e previsioni meteorologiche.

Per cambiare la mappa : fare clic sui pulsanti verdi con una croce nera per ingrandire, il pulsante verde con un trattino per diminuire, o sulla freccia verde per le mappe adiacenti.


METAR-TAF: